sensor_id;sensor_type;location;lat;lon;timestamp;P1;durP1;ratioP1;P2;durP2;ratioP2
55720;SDS011;41626;53.098;6.168;2022-10-16T00:00:40;18.05;;;2.60;;
55720;SDS011;41626;53.098;6.168;2022-10-16T00:03:07;8.60;;;1.70;;
55720;SDS011;41626;53.098;6.168;2022-10-16T00:05:37;3.35;;;2.53;;
55720;SDS011;41626;53.098;6.168;2022-10-16T00:08:04;9.38;;;2.00;;
55720;SDS011;41626;53.098;6.168;2022-10-16T00:10:30;6.70;;;2.85;;
55720;SDS011;41626;53.098;6.168;2022-10-16T00:12:56;4.70;;;1.10;;
55720;SDS011;41626;53.098;6.168;2022-10-16T00:15:22;6.50;;;1.30;;
55720;SDS011;41626;53.098;6.168;2022-10-16T00:17:47;7.78;;;2.25;;
55720;SDS011;41626;53.098;6.168;2022-10-16T00:20:13;8.77;;;2.53;;
55720;SDS011;41626;53.098;6.168;2022-10-16T00:22:39;9.98;;;2.38;;
55720;SDS011;41626;53.098;6.168;2022-10-16T00:25:05;25.40;;;3.13;;
55720;SDS011;41626;53.098;6.168;2022-10-16T00:27:31;5.55;;;1.20;;
55720;SDS011;41626;53.098;6.168;2022-10-16T00:29:56;4.53;;;1.05;;
55720;SDS011;41626;53.098;6.168;2022-10-16T00:32:22;4.13;;;1.27;;
55720;SDS011;41626;53.098;6.168;2022-10-16T00:34:48;4.75;;;1.70;;
55720;SDS011;41626;53.098;6.168;2022-10-16T00:37:13;6.55;;;1.70;;
55720;SDS011;41626;53.098;6.168;2022-10-16T00:39:39;6.43;;;1.67;;
55720;SDS011;41626;53.098;6.168;2022-10-16T00:42:04;8.18;;;2.00;;
55720;SDS011;41626;53.098;6.168;2022-10-16T00:44:47;3.88;;;1.40;;
55720;SDS011;41626;53.098;6.168;2022-10-16T00:47:37;4.57;;;1.20;;
55720;SDS011;41626;53.098;6.168;2022-10-16T00:50:29;6.07;;;1.60;;
55720;SDS011;41626;53.098;6.168;2022-10-16T00:52:57;7.20;;;0.95;;
55720;SDS011;41626;53.098;6.168;2022-10-16T00:55:25;7.30;;;2.20;;
55720;SDS011;41626;53.098;6.168;2022-10-16T00:57:51;6.65;;;1.48;;
55720;SDS011;41626;53.098;6.168;2022-10-16T01:00:19;9.45;;;2.40;;
55720;SDS011;41626;53.098;6.168;2022-10-16T01:02:57;8.40;;;2.50;;
55720;SDS011;41626;53.098;6.168;2022-10-16T01:05:27;6.75;;;1.40;;
55720;SDS011;41626;53.098;6.168;2022-10-16T01:10:59;5.75;;;1.33;;
55720;SDS011;41626;53.098;6.168;2022-10-16T01:13:33;3.28;;;1.08;;
55720;SDS011;41626;53.098;6.168;2022-10-16T01:16:07;34.38;;;2.83;;
55720;SDS011;41626;53.098;6.168;2022-10-16T01:21:21;8.40;;;1.63;;
55720;SDS011;41626;53.098;6.168;2022-10-16T01:23:57;2.05;;;1.52;;
55720;SDS011;41626;53.098;6.168;2022-10-16T01:27:12;4.47;;;1.50;;
55720;SDS011;41626;53.098;6.168;2022-10-16T01:33:01;7.30;;;2.35;;
55720;SDS011;41626;53.098;6.168;2022-10-16T01:35:33;4.03;;;1.63;;
55720;SDS011;41626;53.098;6.168;2022-10-16T01:40:27;10.10;;;2.95;;
55720;SDS011;41626;53.098;6.168;2022-10-16T01:43:03;3.47;;;1.88;;
55720;SDS011;41626;53.098;6.168;2022-10-16T01:45:30;2.83;;;1.30;;
55720;SDS011;41626;53.098;6.168;2022-10-16T01:47:58;8.32;;;1.85;;
55720;SDS011;41626;53.098;6.168;2022-10-16T01:50:29;10.23;;;1.85;;
55720;SDS011;41626;53.098;6.168;2022-10-16T01:52:58;2.15;;;1.73;;
55720;SDS011;41626;53.098;6.168;2022-10-16T01:55:30;5.15;;;1.60;;
55720;SDS011;41626;53.098;6.168;2022-10-16T01:57:58;4.38;;;1.52;;
55720;SDS011;41626;53.098;6.168;2022-10-16T02:00:27;4.32;;;1.33;;
55720;SDS011;41626;53.098;6.168;2022-10-16T02:02:55;6.35;;;1.48;;
55720;SDS011;41626;53.098;6.168;2022-10-16T02:10:39;6.25;;;1.80;;
55720;SDS011;41626;53.098;6.168;2022-10-16T02:15:34;4.32;;;1.20;;
55720;SDS011;41626;53.098;6.168;2022-10-16T02:18:01;5.57;;;2.33;;
55720;SDS011;41626;53.098;6.168;2022-10-16T02:20:28;4.85;;;1.67;;
55720;SDS011;41626;53.098;6.168;2022-10-16T02:22:59;11.27;;;3.03;;
55720;SDS011;41626;53.098;6.168;2022-10-16T02:28:11;5.68;;;1.27;;
55720;SDS011;41626;53.098;6.168;2022-10-16T02:30:45;11.40;;;2.72;;
55720;SDS011;41626;53.098;6.168;2022-10-16T02:33:17;4.65;;;2.13;;
55720;SDS011;41626;53.098;6.168;2022-10-16T02:35:46;5.68;;;1.30;;
55720;SDS011;41626;53.098;6.168;2022-10-16T02:38:14;3.47;;;1.10;;
55720;SDS011;41626;53.098;6.168;2022-10-16T02:40:41;3.67;;;1.80;;
55720;SDS011;41626;53.098;6.168;2022-10-16T02:43:07;6.63;;;2.10;;
55720;SDS011;41626;53.098;6.168;2022-10-16T02:45:34;5.55;;;1.33;;
55720;SDS011;41626;53.098;6.168;2022-10-16T02:47:59;5.63;;;1.17;;
55720;SDS011;41626;53.098;6.168;2022-10-16T02:50:25;6.15;;;1.20;;
55720;SDS011;41626;53.098;6.168;2022-10-16T02:52:51;2.90;;;1.70;;
55720;SDS011;41626;53.098;6.168;2022-10-16T02:55:16;3.65;;;1.10;;
55720;SDS011;41626;53.098;6.168;2022-10-16T02:57:42;7.10;;;2.55;;
55720;SDS011;41626;53.098;6.168;2022-10-16T03:00:08;5.35;;;1.55;;
55720;SDS011;41626;53.098;6.168;2022-10-16T03:02:37;2.40;;;1.35;;
55720;SDS011;41626;53.098;6.168;2022-10-16T03:05:03;4.72;;;2.15;;
55720;SDS011;41626;53.098;6.168;2022-10-16T03:07:29;7.13;;;1.52;;
55720;SDS011;41626;53.098;6.168;2022-10-16T03:09:54;6.32;;;2.55;;
55720;SDS011;41626;53.098;6.168;2022-10-16T03:12:20;4.53;;;1.70;;
55720;SDS011;41626;53.098;6.168;2022-10-16T03:14:46;4.18;;;1.42;;
55720;SDS011;41626;53.098;6.168;2022-10-16T03:17:12;12.80;;;2.30;;
55720;SDS011;41626;53.098;6.168;2022-10-16T03:19:38;8.75;;;2.13;;
55720;SDS011;41626;53.098;6.168;2022-10-16T03:22:04;4.85;;;1.42;;
55720;SDS011;41626;53.098;6.168;2022-10-16T03:24:30;5.03;;;1.80;;
55720;SDS011;41626;53.098;6.168;2022-10-16T03:26:55;3.63;;;1.33;;
55720;SDS011;41626;53.098;6.168;2022-10-16T03:29:21;5.90;;;2.25;;
55720;SDS011;41626;53.098;6.168;2022-10-16T03:31:46;3.28;;;1.30;;
55720;SDS011;41626;53.098;6.168;2022-10-16T03:34:14;6.90;;;1.30;;
55720;SDS011;41626;53.098;6.168;2022-10-16T03:36:40;6.68;;;1.65;;
55720;SDS011;41626;53.098;6.168;2022-10-16T03:39:05;5.95;;;1.33;;
55720;SDS011;41626;53.098;6.168;2022-10-16T03:41:31;3.72;;;1.73;;
55720;SDS011;41626;53.098;6.168;2022-10-16T03:43:57;4.00;;;1.48;;
55720;SDS011;41626;53.098;6.168;2022-10-16T03:46:22;3.88;;;2.00;;
55720;SDS011;41626;53.098;6.168;2022-10-16T03:48:48;4.78;;;1.38;;
55720;SDS011;41626;53.098;6.168;2022-10-16T03:51:14;2.38;;;1.25;;
55720;SDS011;41626;53.098;6.168;2022-10-16T03:53:39;5.60;;;1.15;;
55720;SDS011;41626;53.098;6.168;2022-10-16T03:56:05;1.85;;;1.08;;
55720;SDS011;41626;53.098;6.168;2022-10-16T03:58:31;2.63;;;1.45;;
55720;SDS011;41626;53.098;6.168;2022-10-16T04:00:56;2.53;;;0.82;;
55720;SDS011;41626;53.098;6.168;2022-10-16T04:03:22;2.95;;;1.60;;
55720;SDS011;41626;53.098;6.168;2022-10-16T04:05:48;4.57;;;1.30;;
55720;SDS011;41626;53.098;6.168;2022-10-16T04:08:14;4.25;;;2.05;;
55720;SDS011;41626;53.098;6.168;2022-10-16T04:10:42;6.78;;;1.77;;
55720;SDS011;41626;53.098;6.168;2022-10-16T04:13:08;4.10;;;1.52;;
55720;SDS011;41626;53.098;6.168;2022-10-16T04:15:34;15.75;;;2.25;;
55720;SDS011;41626;53.098;6.168;2022-10-16T04:17:59;2.33;;;1.63;;
55720;SDS011;41626;53.098;6.168;2022-10-16T04:20:25;3.72;;;1.38;;
55720;SDS011;41626;53.098;6.168;2022-10-16T04:22:51;6.60;;;1.60;;
55720;SDS011;41626;53.098;6.168;2022-10-16T04:25:16;6.53;;;2.25;;
55720;SDS011;41626;53.098;6.168;2022-10-16T04:27:42;2.70;;;1.42;;
55720;SDS011;41626;53.098;6.168;2022-10-16T04:30:08;4.28;;;1.23;;
55720;SDS011;41626;53.098;6.168;2022-10-16T04:32:34;6.97;;;2.58;;
55720;SDS011;41626;53.098;6.168;2022-10-16T04:34:59;4.78;;;1.20;;
55720;SDS011;41626;53.098;6.168;2022-10-16T04:37:26;3.95;;;1.50;;
55720;SDS011;41626;53.098;6.168;2022-10-16T04:39:52;6.47;;;2.15;;
55720;SDS011;41626;53.098;6.168;2022-10-16T04:42:18;5.15;;;1.40;;
55720;SDS011;41626;53.098;6.168;2022-10-16T04:44:44;6.22;;;1.80;;
55720;SDS011;41626;53.098;6.168;2022-10-16T04:47:10;2.08;;;0.88;;
55720;SDS011;41626;53.098;6.168;2022-10-16T04:49:36;5.35;;;2.15;;
55720;SDS011;41626;53.098;6.168;2022-10-16T04:52:02;3.35;;;1.52;;
55720;SDS011;41626;53.098;6.168;2022-10-16T04:54:28;6.57;;;1.63;;
55720;SDS011;41626;53.098;6.168;2022-10-16T04:56:53;5.75;;;2.80;;
55720;SDS011;41626;53.098;6.168;2022-10-16T04:59:19;11.05;;;1.88;;
55720;SDS011;41626;53.098;6.168;2022-10-16T05:01:45;7.47;;;1.63;;
55720;SDS011;41626;53.098;6.168;2022-10-16T05:04:11;5.30;;;1.77;;
55720;SDS011;41626;53.098;6.168;2022-10-16T05:06:37;4.90;;;1.40;;
55720;SDS011;41626;53.098;6.168;2022-10-16T05:09:05;5.05;;;2.42;;
55720;SDS011;41626;53.098;6.168;2022-10-16T05:11:32;6.65;;;2.53;;
55720;SDS011;41626;53.098;6.168;2022-10-16T05:13:58;5.13;;;1.75;;
55720;SDS011;41626;53.098;6.168;2022-10-16T05:16:23;6.35;;;2.35;;
55720;SDS011;41626;53.098;6.168;2022-10-16T05:18:50;5.07;;;1.88;;
55720;SDS011;41626;53.098;6.168;2022-10-16T05:21:16;3.88;;;2.00;;
55720;SDS011;41626;53.098;6.168;2022-10-16T05:23:42;10.18;;;2.65;;
55720;SDS011;41626;53.098;6.168;2022-10-16T05:26:07;7.30;;;3.13;;
55720;SDS011;41626;53.098;6.168;2022-10-16T05:28:33;4.32;;;2.17;;
55720;SDS011;41626;53.098;6.168;2022-10-16T05:30:59;4.55;;;2.22;;
55720;SDS011;41626;53.098;6.168;2022-10-16T05:33:28;3.80;;;2.00;;
55720;SDS011;41626;53.098;6.168;2022-10-16T05:35:54;4.72;;;2.42;;
55720;SDS011;41626;53.098;6.168;2022-10-16T05:38:19;8.48;;;2.45;;
55720;SDS011;41626;53.098;6.168;2022-10-16T05:40:52;3.97;;;2.05;;
55720;SDS011;41626;53.098;6.168;2022-10-16T05:43:18;4.25;;;2.15;;
55720;SDS011;41626;53.098;6.168;2022-10-16T05:45:52;6.43;;;1.85;;
55720;SDS011;41626;53.098;6.168;2022-10-16T05:48:19;8.75;;;3.83;;
55720;SDS011;41626;53.098;6.168;2022-10-16T05:50:44;7.95;;;2.55;;
55720;SDS011;41626;53.098;6.168;2022-10-16T05:53:10;4.28;;;2.17;;
55720;SDS011;41626;53.098;6.168;2022-10-16T05:55:35;5.20;;;2.78;;
55720;SDS011;41626;53.098;6.168;2022-10-16T05:58:01;5.47;;;2.65;;
55720;SDS011;41626;53.098;6.168;2022-10-16T06:00:27;9.32;;;3.83;;
55720;SDS011;41626;53.098;6.168;2022-10-16T06:02:53;3.95;;;2.38;;
55720;SDS011;41626;53.098;6.168;2022-10-16T06:05:18;4.47;;;2.47;;
55720;SDS011;41626;53.098;6.168;2022-10-16T06:07:44;2.55;;;1.95;;
55720;SDS011;41626;53.098;6.168;2022-10-16T06:10:10;3.42;;;2.33;;
55720;SDS011;41626;53.098;6.168;2022-10-16T06:12:35;5.22;;;2.63;;
55720;SDS011;41626;53.098;6.168;2022-10-16T06:15:01;5.18;;;3.20;;
55720;SDS011;41626;53.098;6.168;2022-10-16T06:17:27;3.92;;;2.55;;
55720;SDS011;41626;53.098;6.168;2022-10-16T06:19:52;6.10;;;2.05;;
55720;SDS011;41626;53.098;6.168;2022-10-16T06:22:18;6.30;;;3.47;;
55720;SDS011;41626;53.098;6.168;2022-10-16T06:24:43;6.32;;;2.63;;
55720;SDS011;41626;53.098;6.168;2022-10-16T06:27:09;5.38;;;3.10;;
55720;SDS011;41626;53.098;6.168;2022-10-16T06:29:35;7.72;;;2.63;;
55720;SDS011;41626;53.098;6.168;2022-10-16T06:32:00;5.00;;;3.03;;
55720;SDS011;41626;53.098;6.168;2022-10-16T06:34:26;5.90;;;3.70;;
55720;SDS011;41626;53.098;6.168;2022-10-16T06:36:51;3.40;;;1.98;;
55720;SDS011;41626;53.098;6.168;2022-10-16T06:39:17;4.80;;;2.08;;
55720;SDS011;41626;53.098;6.168;2022-10-16T06:41:43;8.35;;;2.95;;
55720;SDS011;41626;53.098;6.168;2022-10-16T06:44:08;6.30;;;3.10;;
55720;SDS011;41626;53.098;6.168;2022-10-16T06:46:34;7.30;;;2.35;;
55720;SDS011;41626;53.098;6.168;2022-10-16T06:48:59;8.30;;;2.45;;
55720;SDS011;41626;53.098;6.168;2022-10-16T06:51:25;6.18;;;2.30;;
55720;SDS011;41626;53.098;6.168;2022-10-16T06:53:52;5.25;;;2.60;;
55720;SDS011;41626;53.098;6.168;2022-10-16T06:58:44;7.80;;;3.35;;
55720;SDS011;41626;53.098;6.168;2022-10-16T07:01:11;2.88;;;1.67;;
55720;SDS011;41626;53.098;6.168;2022-10-16T07:03:38;5.93;;;2.70;;
55720;SDS011;41626;53.098;6.168;2022-10-16T07:06:08;5.78;;;2.25;;
55720;SDS011;41626;53.098;6.168;2022-10-16T07:08:36;3.92;;;2.40;;
55720;SDS011;41626;53.098;6.168;2022-10-16T07:11:04;7.03;;;2.72;;
55720;SDS011;41626;53.098;6.168;2022-10-16T07:13:39;9.70;;;2.28;;
55720;SDS011;41626;53.098;6.168;2022-10-16T07:16:06;4.53;;;1.67;;
55720;SDS011;41626;53.098;6.168;2022-10-16T07:18:33;7.10;;;2.10;;
55720;SDS011;41626;53.098;6.168;2022-10-16T07:21:05;6.82;;;1.88;;
55720;SDS011;41626;53.098;6.168;2022-10-16T07:23:36;5.07;;;2.00;;
55720;SDS011;41626;53.098;6.168;2022-10-16T07:26:03;8.55;;;2.20;;
55720;SDS011;41626;53.098;6.168;2022-10-16T07:28:30;8.23;;;2.05;;
55720;SDS011;41626;53.098;6.168;2022-10-16T07:31:00;5.88;;;1.75;;
55720;SDS011;41626;53.098;6.168;2022-10-16T07:33:27;3.47;;;1.80;;
55720;SDS011;41626;53.098;6.168;2022-10-16T07:35:54;6.30;;;2.08;;
55720;SDS011;41626;53.098;6.168;2022-10-16T07:38:20;11.43;;;2.35;;
55720;SDS011;41626;53.098;6.168;2022-10-16T07:40:47;4.75;;;1.98;;
55720;SDS011;41626;53.098;6.168;2022-10-16T07:43:13;2.95;;;1.83;;
55720;SDS011;41626;53.098;6.168;2022-10-16T07:45:46;7.13;;;2.47;;
55720;SDS011;41626;53.098;6.168;2022-10-16T07:48:14;5.93;;;3.15;;
55720;SDS011;41626;53.098;6.168;2022-10-16T07:50:40;6.28;;;2.88;;
55720;SDS011;41626;53.098;6.168;2022-10-16T07:53:06;7.82;;;2.92;;
55720;SDS011;41626;53.098;6.168;2022-10-16T07:55:32;4.78;;;2.38;;
55720;SDS011;41626;53.098;6.168;2022-10-16T07:57:58;8.48;;;2.95;;
55720;SDS011;41626;53.098;6.168;2022-10-16T08:00:24;19.98;;;2.63;;
55720;SDS011;41626;53.098;6.168;2022-10-16T08:02:49;7.07;;;2.20;;
55720;SDS011;41626;53.098;6.168;2022-10-16T08:05:15;4.70;;;1.77;;
55720;SDS011;41626;53.098;6.168;2022-10-16T08:07:40;7.45;;;2.45;;
55720;SDS011;41626;53.098;6.168;2022-10-16T08:10:06;4.93;;;2.67;;
55720;SDS011;41626;53.098;6.168;2022-10-16T08:12:45;6.65;;;2.22;;
55720;SDS011;41626;53.098;6.168;2022-10-16T08:15:11;5.32;;;2.83;;
55720;SDS011;41626;53.098;6.168;2022-10-16T08:17:36;9.77;;;2.45;;
55720;SDS011;41626;53.098;6.168;2022-10-16T08:20:03;5.40;;;2.38;;
55720;SDS011;41626;53.098;6.168;2022-10-16T08:22:29;5.15;;;1.85;;
55720;SDS011;41626;53.098;6.168;2022-10-16T08:24:54;6.95;;;1.88;;
55720;SDS011;41626;53.098;6.168;2022-10-16T08:27:20;11.20;;;3.72;;
55720;SDS011;41626;53.098;6.168;2022-10-16T08:29:45;4.88;;;1.70;;
55720;SDS011;41626;53.098;6.168;2022-10-16T08:32:13;6.65;;;1.83;;
55720;SDS011;41626;53.098;6.168;2022-10-16T08:34:38;5.40;;;2.25;;
55720;SDS011;41626;53.098;6.168;2022-10-16T08:37:04;5.93;;;1.05;;
55720;SDS011;41626;53.098;6.168;2022-10-16T08:39:30;6.72;;;1.45;;
55720;SDS011;41626;53.098;6.168;2022-10-16T08:47:17;3.35;;;1.42;;
55720;SDS011;41626;53.098;6.168;2022-10-16T08:49:50;6.20;;;2.10;;
55720;SDS011;41626;53.098;6.168;2022-10-16T08:52:21;4.60;;;1.40;;
55720;SDS011;41626;53.098;6.168;2022-10-16T08:54:50;4.05;;;1.13;;
55720;SDS011;41626;53.098;6.168;2022-10-16T08:57:19;4.47;;;2.40;;
55720;SDS011;41626;53.098;6.168;2022-10-16T08:59:47;6.43;;;1.45;;
55720;SDS011;41626;53.098;6.168;2022-10-16T09:02:21;10.68;;;2.08;;
55720;SDS011;41626;53.098;6.168;2022-10-16T09:10:34;6.30;;;1.88;;
55720;SDS011;41626;53.098;6.168;2022-10-16T09:16:36;6.43;;;1.42;;
55720;SDS011;41626;53.098;6.168;2022-10-16T09:21:38;8.20;;;2.35;;
55720;SDS011;41626;53.098;6.168;2022-10-16T09:24:15;7.40;;;3.08;;
55720;SDS011;41626;53.098;6.168;2022-10-16T09:26:45;14.95;;;2.00;;
55720;SDS011;41626;53.098;6.168;2022-10-16T09:29:12;10.07;;;2.75;;
55720;SDS011;41626;53.098;6.168;2022-10-16T09:31:39;7.40;;;1.80;;
55720;SDS011;41626;53.098;6.168;2022-10-16T09:34:06;7.82;;;1.55;;
55720;SDS011;41626;53.098;6.168;2022-10-16T09:36:43;5.70;;;1.10;;
55720;SDS011;41626;53.098;6.168;2022-10-16T09:39:11;12.02;;;2.25;;
55720;SDS011;41626;53.098;6.168;2022-10-16T09:41:37;21.80;;;4.43;;
55720;SDS011;41626;53.098;6.168;2022-10-16T09:44:28;15.40;;;3.50;;
55720;SDS011;41626;53.098;6.168;2022-10-16T09:47:12;9.57;;;2.40;;
55720;SDS011;41626;53.098;6.168;2022-10-16T09:49:53;9.50;;;2.83;;
55720;SDS011;41626;53.098;6.168;2022-10-16T09:52:22;8.50;;;2.15;;
55720;SDS011;41626;53.098;6.168;2022-10-16T09:54:49;9.93;;;2.60;;
55720;SDS011;41626;53.098;6.168;2022-10-16T09:57:19;15.50;;;3.03;;
55720;SDS011;41626;53.098;6.168;2022-10-16T09:59:49;15.75;;;3.35;;
55720;SDS011;41626;53.098;6.168;2022-10-16T10:02:17;11.35;;;2.22;;
55720;SDS011;41626;53.098;6.168;2022-10-16T10:04:52;9.63;;;3.53;;
55720;SDS011;41626;53.098;6.168;2022-10-16T10:09:52;10.50;;;1.98;;
55720;SDS011;41626;53.098;6.168;2022-10-16T10:12:21;12.20;;;2.95;;
55720;SDS011;41626;53.098;6.168;2022-10-16T10:14:49;15.25;;;2.67;;
55720;SDS011;41626;53.098;6.168;2022-10-16T10:17:18;17.30;;;4.07;;
55720;SDS011;41626;53.098;6.168;2022-10-16T10:22:32;12.00;;;2.20;;
55720;SDS011;41626;53.098;6.168;2022-10-16T10:30:38;16.23;;;3.22;;
55720;SDS011;41626;53.098;6.168;2022-10-16T10:46:51;9.18;;;2.05;;
55720;SDS011;41626;53.098;6.168;2022-10-16T10:58:08;12.25;;;1.92;;
55720;SDS011;41626;53.098;6.168;2022-10-16T11:06:15;14.23;;;2.60;;
55720;SDS011;41626;53.098;6.168;2022-10-16T11:09:02;14.32;;;3.75;;
55720;SDS011;41626;53.098;6.168;2022-10-16T11:12:01;13.35;;;2.28;;
55720;SDS011;41626;53.098;6.168;2022-10-16T11:14:36;16.15;;;2.70;;
55720;SDS011;41626;53.098;6.168;2022-10-16T11:17:11;11.85;;;1.88;;
55720;SDS011;41626;53.098;6.168;2022-10-16T11:19:53;14.90;;;3.10;;
55720;SDS011;41626;53.098;6.168;2022-10-16T11:22:39;19.40;;;3.90;;
55720;SDS011;41626;53.098;6.168;2022-10-16T11:25:29;14.55;;;3.03;;
55720;SDS011;41626;53.098;6.168;2022-10-16T11:28:10;14.23;;;3.83;;
55720;SDS011;41626;53.098;6.168;2022-10-16T11:33:20;9.02;;;2.17;;
55720;SDS011;41626;53.098;6.168;2022-10-16T11:40:54;12.65;;;3.08;;
55720;SDS011;41626;53.098;6.168;2022-10-16T11:43:27;13.23;;;3.13;;
55720;SDS011;41626;53.098;6.168;2022-10-16T11:46:02;13.40;;;4.18;;
55720;SDS011;41626;53.098;6.168;2022-10-16T11:48:39;19.73;;;4.55;;
55720;SDS011;41626;53.098;6.168;2022-10-16T11:56:51;18.45;;;3.63;;
55720;SDS011;41626;53.098;6.168;2022-10-16T12:01:52;10.93;;;2.25;;
55720;SDS011;41626;53.098;6.168;2022-10-16T12:04:28;13.63;;;3.15;;
55720;SDS011;41626;53.098;6.168;2022-10-16T12:07:11;12.27;;;2.10;;
55720;SDS011;41626;53.098;6.168;2022-10-16T12:09:51;9.32;;;1.90;;
55720;SDS011;41626;53.098;6.168;2022-10-16T12:12:27;13.23;;;2.25;;
55720;SDS011;41626;53.098;6.168;2022-10-16T12:14:59;9.32;;;3.33;;
55720;SDS011;41626;53.098;6.168;2022-10-16T12:17:43;13.95;;;3.33;;
55720;SDS011;41626;53.098;6.168;2022-10-16T12:22:41;7.53;;;1.67;;
55720;SDS011;41626;53.098;6.168;2022-10-16T12:25:20;9.80;;;3.40;;
55720;SDS011;41626;53.098;6.168;2022-10-16T12:27:58;9.10;;;2.65;;
55720;SDS011;41626;53.098;6.168;2022-10-16T12:30:24;11.55;;;2.65;;
55720;SDS011;41626;53.098;6.168;2022-10-16T12:33:02;16.15;;;3.38;;
55720;SDS011;41626;53.098;6.168;2022-10-16T12:35:44;13.90;;;3.45;;
55720;SDS011;41626;53.098;6.168;2022-10-16T12:38:18;8.87;;;2.20;;
55720;SDS011;41626;53.098;6.168;2022-10-16T12:40:59;15.32;;;3.95;;
55720;SDS011;41626;53.098;6.168;2022-10-16T12:48:35;14.45;;;3.10;;
55720;SDS011;41626;53.098;6.168;2022-10-16T12:51:39;12.75;;;2.13;;
55720;SDS011;41626;53.098;6.168;2022-10-16T12:54:05;15.10;;;4.10;;
55720;SDS011;41626;53.098;6.168;2022-10-16T12:57:02;9.25;;;2.30;;
55720;SDS011;41626;53.098;6.168;2022-10-16T13:00:13;10.00;;;2.70;;
55720;SDS011;41626;53.098;6.168;2022-10-16T13:08:29;12.35;;;2.60;;
55720;SDS011;41626;53.098;6.168;2022-10-16T13:17:02;8.60;;;2.17;;
55720;SDS011;41626;53.098;6.168;2022-10-16T13:25:21;12.02;;;2.70;;
55720;SDS011;41626;53.098;6.168;2022-10-16T13:27:59;13.23;;;2.50;;
55720;SDS011;41626;53.098;6.168;2022-10-16T13:30:26;20.90;;;2.78;;
55720;SDS011;41626;53.098;6.168;2022-10-16T13:33:07;9.18;;;2.13;;
55720;SDS011;41626;53.098;6.168;2022-10-16T13:38:16;6.65;;;2.42;;
55720;SDS011;41626;53.098;6.168;2022-10-16T13:40:51;11.88;;;3.00;;
55720;SDS011;41626;53.098;6.168;2022-10-16T13:48:44;13.35;;;1.90;;
55720;SDS011;41626;53.098;6.168;2022-10-16T13:51:17;11.65;;;3.38;;
55720;SDS011;41626;53.098;6.168;2022-10-16T13:53:44;12.60;;;2.22;;
55720;SDS011;41626;53.098;6.168;2022-10-16T13:56:11;11.95;;;2.45;;
55720;SDS011;41626;53.098;6.168;2022-10-16T13:58:39;12.75;;;3.03;;
55720;SDS011;41626;53.098;6.168;2022-10-16T14:01:11;9.85;;;1.55;;
55720;SDS011;41626;53.098;6.168;2022-10-16T14:03:44;18.00;;;4.70;;
55720;SDS011;41626;53.098;6.168;2022-10-16T14:06:12;10.70;;;2.50;;
55720;SDS011;41626;53.098;6.168;2022-10-16T14:11:29;12.82;;;2.28;;
55720;SDS011;41626;53.098;6.168;2022-10-16T14:13:55;12.10;;;2.20;;
55720;SDS011;41626;53.098;6.168;2022-10-16T14:16:23;15.57;;;2.42;;
55720;SDS011;41626;53.098;6.168;2022-10-16T14:19:03;11.38;;;1.73;;
55720;SDS011;41626;53.098;6.168;2022-10-16T14:21:31;15.30;;;3.35;;
55720;SDS011;41626;53.098;6.168;2022-10-16T14:23:58;12.85;;;2.85;;
55720;SDS011;41626;53.098;6.168;2022-10-16T14:26:40;8.52;;;1.92;;
55720;SDS011;41626;53.098;6.168;2022-10-16T14:29:29;10.10;;;3.60;;
55720;SDS011;41626;53.098;6.168;2022-10-16T14:32:03;17.05;;;3.42;;
55720;SDS011;41626;53.098;6.168;2022-10-16T14:34:37;10.77;;;1.70;;
55720;SDS011;41626;53.098;6.168;2022-10-16T14:39:32;16.70;;;2.35;;
55720;SDS011;41626;53.098;6.168;2022-10-16T14:41:58;13.85;;;2.65;;
55720;SDS011;41626;53.098;6.168;2022-10-16T14:44:28;8.43;;;1.83;;
55720;SDS011;41626;53.098;6.168;2022-10-16T14:46:57;9.00;;;2.33;;
55720;SDS011;41626;53.098;6.168;2022-10-16T14:49:24;7.65;;;1.88;;
55720;SDS011;41626;53.098;6.168;2022-10-16T14:51:51;13.02;;;1.90;;
55720;SDS011;41626;53.098;6.168;2022-10-16T14:54:18;9.07;;;2.17;;
55720;SDS011;41626;53.098;6.168;2022-10-16T14:57:02;9.90;;;2.03;;
55720;SDS011;41626;53.098;6.168;2022-10-16T14:59:30;10.68;;;2.80;;
55720;SDS011;41626;53.098;6.168;2022-10-16T15:02:02;9.88;;;2.20;;
55720;SDS011;41626;53.098;6.168;2022-10-16T15:04:43;15.68;;;3.13;;
55720;SDS011;41626;53.098;6.168;2022-10-16T15:07:08;13.32;;;2.25;;
55720;SDS011;41626;53.098;6.168;2022-10-16T15:09:34;13.35;;;3.95;;
55720;SDS011;41626;53.098;6.168;2022-10-16T15:12:00;17.92;;;3.63;;
55720;SDS011;41626;53.098;6.168;2022-10-16T15:14:25;14.57;;;4.75;;
55720;SDS011;41626;53.098;6.168;2022-10-16T15:16:51;13.25;;;2.92;;
55720;SDS011;41626;53.098;6.168;2022-10-16T15:19:16;13.77;;;3.40;;
55720;SDS011;41626;53.098;6.168;2022-10-16T15:21:42;15.70;;;3.90;;
55720;SDS011;41626;53.098;6.168;2022-10-16T15:24:09;14.40;;;4.07;;
55720;SDS011;41626;53.098;6.168;2022-10-16T15:26:38;10.70;;;2.67;;
55720;SDS011;41626;53.098;6.168;2022-10-16T15:29:04;12.45;;;3.30;;
55720;SDS011;41626;53.098;6.168;2022-10-16T15:31:30;19.48;;;3.80;;
55720;SDS011;41626;53.098;6.168;2022-10-16T15:33:55;6.00;;;2.17;;
55720;SDS011;41626;53.098;6.168;2022-10-16T15:36:36;19.15;;;4.82;;
55720;SDS011;41626;53.098;6.168;2022-10-16T15:39:04;11.25;;;2.92;;
55720;SDS011;41626;53.098;6.168;2022-10-16T15:41:40;19.30;;;5.43;;
55720;SDS011;41626;53.098;6.168;2022-10-16T15:44:06;21.70;;;9.65;;
55720;SDS011;41626;53.098;6.168;2022-10-16T15:46:32;11.82;;;6.13;;
55720;SDS011;41626;53.098;6.168;2022-10-16T15:48:59;12.10;;;5.95;;
55720;SDS011;41626;53.098;6.168;2022-10-16T15:51:25;14.57;;;5.18;;
55720;SDS011;41626;53.098;6.168;2022-10-16T15:53:57;17.50;;;4.77;;
55720;SDS011;41626;53.098;6.168;2022-10-16T15:56:24;12.43;;;3.87;;
55720;SDS011;41626;53.098;6.168;2022-10-16T15:58:51;15.20;;;3.92;;
55720;SDS011;41626;53.098;6.168;2022-10-16T16:01:17;12.82;;;3.75;;
55720;SDS011;41626;53.098;6.168;2022-10-16T16:03:43;13.07;;;3.53;;
55720;SDS011;41626;53.098;6.168;2022-10-16T16:06:10;10.90;;;3.35;;
55720;SDS011;41626;53.098;6.168;2022-10-16T16:08:37;18.75;;;5.53;;
55720;SDS011;41626;53.098;6.168;2022-10-16T16:11:07;20.92;;;6.10;;
55720;SDS011;41626;53.098;6.168;2022-10-16T16:13:35;16.08;;;5.07;;
55720;SDS011;41626;53.098;6.168;2022-10-16T16:16:07;13.65;;;3.90;;
55720;SDS011;41626;53.098;6.168;2022-10-16T16:18:38;12.48;;;3.28;;
55720;SDS011;41626;53.098;6.168;2022-10-16T16:21:04;15.82;;;3.92;;
55720;SDS011;41626;53.098;6.168;2022-10-16T16:23:31;12.18;;;5.32;;
55720;SDS011;41626;53.098;6.168;2022-10-16T16:28:29;17.05;;;5.45;;
55720;SDS011;41626;53.098;6.168;2022-10-16T16:30:55;13.65;;;4.45;;
55720;SDS011;41626;53.098;6.168;2022-10-16T16:33:21;14.38;;;5.88;;
55720;SDS011;41626;53.098;6.168;2022-10-16T16:35:46;13.85;;;5.13;;
55720;SDS011;41626;53.098;6.168;2022-10-16T16:38:12;15.25;;;5.22;;
55720;SDS011;41626;53.098;6.168;2022-10-16T16:40:38;41.60;;;5.95;;
55720;SDS011;41626;53.098;6.168;2022-10-16T16:43:03;15.10;;;4.80;;
55720;SDS011;41626;53.098;6.168;2022-10-16T16:45:29;16.13;;;4.28;;
55720;SDS011;41626;53.098;6.168;2022-10-16T16:47:55;16.60;;;7.35;;
55720;SDS011;41626;53.098;6.168;2022-10-16T16:50:20;17.90;;;5.10;;
55720;SDS011;41626;53.098;6.168;2022-10-16T16:52:46;14.63;;;4.07;;
55720;SDS011;41626;53.098;6.168;2022-10-16T16:55:11;13.02;;;3.97;;
55720;SDS011;41626;53.098;6.168;2022-10-16T16:57:37;21.90;;;4.90;;
55720;SDS011;41626;53.098;6.168;2022-10-16T17:00:03;11.80;;;3.92;;
55720;SDS011;41626;53.098;6.168;2022-10-16T17:02:29;13.90;;;5.47;;
55720;SDS011;41626;53.098;6.168;2022-10-16T17:04:55;11.00;;;4.50;;
55720;SDS011;41626;53.098;6.168;2022-10-16T17:07:22;16.70;;;4.53;;
55720;SDS011;41626;53.098;6.168;2022-10-16T17:09:50;7.78;;;3.72;;
55720;SDS011;41626;53.098;6.168;2022-10-16T17:12:15;16.27;;;5.50;;